sensor_id;sensor_type;location;lat;lon;timestamp;temperature;humidity
4215;DHT22;2121;48.062;7.850;2023-05-10T00:00:26;13.10;99.90
4215;DHT22;2121;48.062;7.850;2023-05-10T00:02:52;13.10;99.90
4215;DHT22;2121;48.062;7.850;2023-05-10T00:05:18;13.10;99.90
4215;DHT22;2121;48.062;7.850;2023-05-10T00:07:44;13.10;99.90
4215;DHT22;2121;48.062;7.850;2023-05-10T00:10:11;13.10;99.90
4215;DHT22;2121;48.062;7.850;2023-05-10T00:12:37;13.10;99.90
4215;DHT22;2121;48.062;7.850;2023-05-10T00:15:03;13.10;99.90
4215;DHT22;2121;48.062;7.850;2023-05-10T00:17:29;13.10;99.90
4215;DHT22;2121;48.062;7.850;2023-05-10T00:19:55;13.10;99.90
4215;DHT22;2121;48.062;7.850;2023-05-10T00:22:21;13.10;99.90
4215;DHT22;2121;48.062;7.850;2023-05-10T00:24:47;13.10;99.90
4215;DHT22;2121;48.062;7.850;2023-05-10T00:27:12;13.10;99.90
4215;DHT22;2121;48.062;7.850;2023-05-10T00:29:38;13.10;99.90
4215;DHT22;2121;48.062;7.850;2023-05-10T00:32:04;13.10;99.90
4215;DHT22;2121;48.062;7.850;2023-05-10T00:34:30;13.10;99.90
4215;DHT22;2121;48.062;7.850;2023-05-10T00:36:56;13.10;99.90
4215;DHT22;2121;48.062;7.850;2023-05-10T00:39:21;13.10;99.90
4215;DHT22;2121;48.062;7.850;2023-05-10T00:41:47;13.10;99.90
4215;DHT22;2121;48.062;7.850;2023-05-10T00:44:13;13.20;99.90
4215;DHT22;2121;48.062;7.850;2023-05-10T00:46:38;13.10;99.90
4215;DHT22;2121;48.062;7.850;2023-05-10T00:49:04;13.10;99.90
4215;DHT22;2121;48.062;7.850;2023-05-10T00:51:30;13.10;99.90
4215;DHT22;2121;48.062;7.850;2023-05-10T00:53:57;13.10;99.90
4215;DHT22;2121;48.062;7.850;2023-05-10T00:56:23;13.10;99.90
4215;DHT22;2121;48.062;7.850;2023-05-10T00:58:50;13.10;99.90
4215;DHT22;2121;48.062;7.850;2023-05-10T01:01:16;13.10;99.90
4215;DHT22;2121;48.062;7.850;2023-05-10T01:03:42;13.10;99.90
4215;DHT22;2121;48.062;7.850;2023-05-10T01:06:08;13.10;99.90
4215;DHT22;2121;48.062;7.850;2023-05-10T01:08:35;13.10;99.90
4215;DHT22;2121;48.062;7.850;2023-05-10T01:11:01;13.10;99.90
4215;DHT22;2121;48.062;7.850;2023-05-10T01:13:32;13.10;99.90
4215;DHT22;2121;48.062;7.850;2023-05-10T01:15:59;13.10;99.90
4215;DHT22;2121;48.062;7.850;2023-05-10T01:18:28;13.10;99.90
4215;DHT22;2121;48.062;7.850;2023-05-10T01:27:11;13.00;99.90
4215;DHT22;2121;48.062;7.850;2023-05-10T01:30:05;12.90;99.90
4215;DHT22;2121;48.062;7.850;2023-05-10T01:33:00;12.90;99.90
4215;DHT22;2121;48.062;7.850;2023-05-10T01:38:07;12.90;99.90
4215;DHT22;2121;48.062;7.850;2023-05-10T01:47:11;12.90;99.90
4215;DHT22;2121;48.062;7.850;2023-05-10T01:49:47;12.90;99.90
4215;DHT22;2121;48.062;7.850;2023-05-10T01:52:18;12.90;99.90
4215;DHT22;2121;48.062;7.850;2023-05-10T01:54:53;12.90;99.90
4215;DHT22;2121;48.062;7.850;2023-05-10T01:57:24;12.90;99.90
4215;DHT22;2121;48.062;7.850;2023-05-10T01:59:52;12.90;99.90
4215;DHT22;2121;48.062;7.850;2023-05-10T02:02:22;12.90;99.90
4215;DHT22;2121;48.062;7.850;2023-05-10T02:04:50;12.90;99.90
4215;DHT22;2121;48.062;7.850;2023-05-10T02:07:17;12.90;99.90
4215;DHT22;2121;48.062;7.850;2023-05-10T02:09:45;13.00;99.90
4215;DHT22;2121;48.062;7.850;2023-05-10T02:12:15;13.00;99.90
4215;DHT22;2121;48.062;7.850;2023-05-10T02:14:42;13.00;99.90
4215;DHT22;2121;48.062;7.850;2023-05-10T02:17:09;12.90;99.90
4215;DHT22;2121;48.062;7.850;2023-05-10T02:19:37;12.90;99.90
4215;DHT22;2121;48.062;7.850;2023-05-10T02:22:05;13.00;99.90
4215;DHT22;2121;48.062;7.850;2023-05-10T02:24:32;13.00;99.90
4215;DHT22;2121;48.062;7.850;2023-05-10T02:26:59;13.00;99.90
4215;DHT22;2121;48.062;7.850;2023-05-10T02:29:26;13.00;99.90
4215;DHT22;2121;48.062;7.850;2023-05-10T02:31:54;13.00;99.90
4215;DHT22;2121;48.062;7.850;2023-05-10T02:34:26;13.00;99.90
4215;DHT22;2121;48.062;7.850;2023-05-10T02:36:53;13.00;99.90
4215;DHT22;2121;48.062;7.850;2023-05-10T02:39:21;13.00;99.90
4215;DHT22;2121;48.062;7.850;2023-05-10T02:41:49;13.00;99.90
4215;DHT22;2121;48.062;7.850;2023-05-10T02:44:18;13.00;99.90
4215;DHT22;2121;48.062;7.850;2023-05-10T02:46:45;12.90;99.90
4215;DHT22;2121;48.062;7.850;2023-05-10T02:49:12;12.90;99.90
4215;DHT22;2121;48.062;7.850;2023-05-10T02:51:44;12.80;99.90
4215;DHT22;2121;48.062;7.850;2023-05-10T02:54:19;12.80;99.90
4215;DHT22;2121;48.062;7.850;2023-05-10T02:56:58;12.80;99.90
4215;DHT22;2121;48.062;7.850;2023-05-10T02:59:26;12.80;99.90
4215;DHT22;2121;48.062;7.850;2023-05-10T03:01:52;12.80;99.90
4215;DHT22;2121;48.062;7.850;2023-05-10T03:04:18;12.80;99.90
4215;DHT22;2121;48.062;7.850;2023-05-10T03:06:44;12.80;99.90
4215;DHT22;2121;48.062;7.850;2023-05-10T03:09:10;12.80;99.90
4215;DHT22;2121;48.062;7.850;2023-05-10T03:15:21;12.80;99.90
4215;DHT22;2121;48.062;7.850;2023-05-10T03:17:35;12.90;99.90
4215;DHT22;2121;48.062;7.850;2023-05-10T03:20:10;12.90;99.90
4215;DHT22;2121;48.062;7.850;2023-05-10T03:22:47;12.90;99.90
4215;DHT22;2121;48.062;7.850;2023-05-10T03:25:15;12.90;99.90
4215;DHT22;2121;48.062;7.850;2023-05-10T03:27:43;12.90;99.90
4215;DHT22;2121;48.062;7.850;2023-05-10T03:30:11;12.90;99.90
4215;DHT22;2121;48.062;7.850;2023-05-10T03:32:38;12.90;99.90
4215;DHT22;2121;48.062;7.850;2023-05-10T03:35:08;12.80;99.90
4215;DHT22;2121;48.062;7.850;2023-05-10T03:37:34;12.80;99.90
4215;DHT22;2121;48.062;7.850;2023-05-10T03:40:01;12.70;99.90
4215;DHT22;2121;48.062;7.850;2023-05-10T03:42:27;12.70;99.90
4215;DHT22;2121;48.062;7.850;2023-05-10T03:44:53;12.70;99.90
4215;DHT22;2121;48.062;7.850;2023-05-10T03:47:19;12.70;99.90
4215;DHT22;2121;48.062;7.850;2023-05-10T03:49:45;12.60;99.90
4215;DHT22;2121;48.062;7.850;2023-05-10T03:52:11;12.60;99.90
4215;DHT22;2121;48.062;7.850;2023-05-10T03:54:37;12.60;99.90
4215;DHT22;2121;48.062;7.850;2023-05-10T03:57:03;12.60;99.90
4215;DHT22;2121;48.062;7.850;2023-05-10T03:59:29;12.50;99.90
4215;DHT22;2121;48.062;7.850;2023-05-10T04:01:55;12.50;99.90
4215;DHT22;2121;48.062;7.850;2023-05-10T04:04:21;12.50;99.90
4215;DHT22;2121;48.062;7.850;2023-05-10T04:06:47;12.50;99.90
4215;DHT22;2121;48.062;7.850;2023-05-10T04:09:13;12.50;99.90
4215;DHT22;2121;48.062;7.850;2023-05-10T04:11:39;12.50;99.90
4215;DHT22;2121;48.062;7.850;2023-05-10T04:14:05;12.50;99.90
4215;DHT22;2121;48.062;7.850;2023-05-10T04:16:30;12.50;99.90
4215;DHT22;2121;48.062;7.850;2023-05-10T04:18:56;12.50;99.90
4215;DHT22;2121;48.062;7.850;2023-05-10T04:21:22;12.40;99.90
4215;DHT22;2121;48.062;7.850;2023-05-10T04:23:48;12.40;99.90
4215;DHT22;2121;48.062;7.850;2023-05-10T04:26:14;12.40;99.90
4215;DHT22;2121;48.062;7.850;2023-05-10T04:28:40;12.50;99.90
4215;DHT22;2121;48.062;7.850;2023-05-10T04:31:08;12.40;99.90
4215;DHT22;2121;48.062;7.850;2023-05-10T04:33:35;12.40;99.90
4215;DHT22;2121;48.062;7.850;2023-05-10T04:36:02;12.30;99.90
4215;DHT22;2121;48.062;7.850;2023-05-10T04:38:28;12.30;99.90
4215;DHT22;2121;48.062;7.850;2023-05-10T04:40:54;12.30;99.90
4215;DHT22;2121;48.062;7.850;2023-05-10T04:43:20;12.30;99.90
4215;DHT22;2121;48.062;7.850;2023-05-10T04:45:46;12.30;99.90
4215;DHT22;2121;48.062;7.850;2023-05-10T04:48:11;12.40;99.90
4215;DHT22;2121;48.062;7.850;2023-05-10T04:50:38;12.40;99.90
4215;DHT22;2121;48.062;7.850;2023-05-10T04:53:04;12.40;99.90
4215;DHT22;2121;48.062;7.850;2023-05-10T04:55:30;12.50;99.90
4215;DHT22;2121;48.062;7.850;2023-05-10T04:57:56;12.50;99.90
4215;DHT22;2121;48.062;7.850;2023-05-10T05:00:23;12.50;99.90
4215;DHT22;2121;48.062;7.850;2023-05-10T05:02:48;12.50;99.90
4215;DHT22;2121;48.062;7.850;2023-05-10T05:05:14;12.50;99.90
4215;DHT22;2121;48.062;7.850;2023-05-10T05:07:40;12.60;99.90
4215;DHT22;2121;48.062;7.850;2023-05-10T05:10:07;12.60;99.90
4215;DHT22;2121;48.062;7.850;2023-05-10T05:12:34;12.50;99.90
4215;DHT22;2121;48.062;7.850;2023-05-10T05:15:00;12.60;99.90
4215;DHT22;2121;48.062;7.850;2023-05-10T05:17:26;12.60;99.90
4215;DHT22;2121;48.062;7.850;2023-05-10T05:19:52;12.70;99.90
4215;DHT22;2121;48.062;7.850;2023-05-10T05:22:18;12.80;99.90
4215;DHT22;2121;48.062;7.850;2023-05-10T05:24:44;12.80;99.90
4215;DHT22;2121;48.062;7.850;2023-05-10T05:27:11;12.80;99.90
4215;DHT22;2121;48.062;7.850;2023-05-10T05:29:36;12.90;99.90
4215;DHT22;2121;48.062;7.850;2023-05-10T05:32:02;12.90;99.90
4215;DHT22;2121;48.062;7.850;2023-05-10T05:34:28;12.90;99.90
4215;DHT22;2121;48.062;7.850;2023-05-10T05:36:54;12.90;99.90
4215;DHT22;2121;48.062;7.850;2023-05-10T05:39:20;13.00;99.90
4215;DHT22;2121;48.062;7.850;2023-05-10T05:41:46;13.00;99.90
4215;DHT22;2121;48.062;7.850;2023-05-10T05:44:12;13.00;99.90
4215;DHT22;2121;48.062;7.850;2023-05-10T05:46:37;13.00;99.90
4215;DHT22;2121;48.062;7.850;2023-05-10T05:49:03;13.00;99.90
4215;DHT22;2121;48.062;7.850;2023-05-10T05:51:29;13.00;99.90
4215;DHT22;2121;48.062;7.850;2023-05-10T05:53:55;13.00;99.90
4215;DHT22;2121;48.062;7.850;2023-05-10T05:56:24;13.00;99.90
4215;DHT22;2121;48.062;7.850;2023-05-10T05:58:50;13.00;99.90
4215;DHT22;2121;48.062;7.850;2023-05-10T06:01:16;13.00;99.90
4215;DHT22;2121;48.062;7.850;2023-05-10T06:03:42;12.90;99.90
4215;DHT22;2121;48.062;7.850;2023-05-10T06:06:07;12.80;99.90
4215;DHT22;2121;48.062;7.850;2023-05-10T06:08:33;12.80;99.90
4215;DHT22;2121;48.062;7.850;2023-05-10T06:11:00;12.70;99.90
4215;DHT22;2121;48.062;7.850;2023-05-10T06:13:26;12.70;99.90
4215;DHT22;2121;48.062;7.850;2023-05-10T06:15:58;12.60;99.90
4215;DHT22;2121;48.062;7.850;2023-05-10T06:18:24;12.60;99.90
4215;DHT22;2121;48.062;7.850;2023-05-10T06:20:50;12.60;99.90
4215;DHT22;2121;48.062;7.850;2023-05-10T06:23:17;12.60;99.90
4215;DHT22;2121;48.062;7.850;2023-05-10T06:25:42;12.50;99.90
4215;DHT22;2121;48.062;7.850;2023-05-10T06:28:08;12.50;99.90
4215;DHT22;2121;48.062;7.850;2023-05-10T06:30:36;12.50;99.90
4215;DHT22;2121;48.062;7.850;2023-05-10T06:33:02;12.50;99.90
4215;DHT22;2121;48.062;7.850;2023-05-10T06:35:28;12.40;99.90
4215;DHT22;2121;48.062;7.850;2023-05-10T06:37:54;12.40;99.90
4215;DHT22;2121;48.062;7.850;2023-05-10T06:40:20;12.30;99.90
4215;DHT22;2121;48.062;7.850;2023-05-10T06:42:47;12.30;99.90
4215;DHT22;2121;48.062;7.850;2023-05-10T06:45:14;12.30;99.90
4215;DHT22;2121;48.062;7.850;2023-05-10T06:47:41;12.30;99.90
4215;DHT22;2121;48.062;7.850;2023-05-10T06:50:08;12.40;99.90
4215;DHT22;2121;48.062;7.850;2023-05-10T06:52:34;12.40;99.90
4215;DHT22;2121;48.062;7.850;2023-05-10T06:55:00;12.50;99.90
4215;DHT22;2121;48.062;7.850;2023-05-10T06:57:26;12.50;99.90
4215;DHT22;2121;48.062;7.850;2023-05-10T06:59:51;12.70;99.90
4215;DHT22;2121;48.062;7.850;2023-05-10T07:02:17;12.80;99.90
4215;DHT22;2121;48.062;7.850;2023-05-10T07:04:43;12.90;99.90
4215;DHT22;2121;48.062;7.850;2023-05-10T07:07:09;12.90;99.90
4215;DHT22;2121;48.062;7.850;2023-05-10T07:09:35;13.00;99.90
4215;DHT22;2121;48.062;7.850;2023-05-10T07:12:01;13.00;99.90
4215;DHT22;2121;48.062;7.850;2023-05-10T07:14:27;13.00;99.90
4215;DHT22;2121;48.062;7.850;2023-05-10T07:16:53;13.00;99.90
4215;DHT22;2121;48.062;7.850;2023-05-10T07:19:19;13.00;99.90
4215;DHT22;2121;48.062;7.850;2023-05-10T07:21:45;13.10;99.90
4215;DHT22;2121;48.062;7.850;2023-05-10T07:24:11;13.10;99.90
4215;DHT22;2121;48.062;7.850;2023-05-10T07:26:36;13.40;99.90
4215;DHT22;2121;48.062;7.850;2023-05-10T07:29:02;13.60;99.90
4215;DHT22;2121;48.062;7.850;2023-05-10T07:31:28;13.70;99.90
4215;DHT22;2121;48.062;7.850;2023-05-10T07:33:54;13.80;99.90
4215;DHT22;2121;48.062;7.850;2023-05-10T07:36:19;13.90;99.90
4215;DHT22;2121;48.062;7.850;2023-05-10T07:38:45;13.80;99.90
4215;DHT22;2121;48.062;7.850;2023-05-10T07:41:12;14.00;99.90
4215;DHT22;2121;48.062;7.850;2023-05-10T07:43:38;13.90;99.90
4215;DHT22;2121;48.062;7.850;2023-05-10T07:46:03;13.80;99.90
4215;DHT22;2121;48.062;7.850;2023-05-10T07:48:30;13.90;99.90
4215;DHT22;2121;48.062;7.850;2023-05-10T07:50:56;14.00;99.90
4215;DHT22;2121;48.062;7.850;2023-05-10T07:53:22;14.00;99.90
4215;DHT22;2121;48.062;7.850;2023-05-10T07:55:53;14.10;99.90
4215;DHT22;2121;48.062;7.850;2023-05-10T07:58:20;14.20;99.90
4215;DHT22;2121;48.062;7.850;2023-05-10T08:00:45;14.40;99.90
4215;DHT22;2121;48.062;7.850;2023-05-10T08:03:11;14.50;99.90
4215;DHT22;2121;48.062;7.850;2023-05-10T08:05:37;14.50;99.90
4215;DHT22;2121;48.062;7.850;2023-05-10T08:08:02;14.60;99.90
4215;DHT22;2121;48.062;7.850;2023-05-10T08:10:28;14.70;99.90
4215;DHT22;2121;48.062;7.850;2023-05-10T08:12:54;15.00;99.90
4215;DHT22;2121;48.062;7.850;2023-05-10T08:15:19;15.00;99.90
4215;DHT22;2121;48.062;7.850;2023-05-10T08:17:45;15.10;99.90
4215;DHT22;2121;48.062;7.850;2023-05-10T08:20:11;15.30;99.90
4215;DHT22;2121;48.062;7.850;2023-05-10T08:22:38;15.20;99.90
4215;DHT22;2121;48.062;7.850;2023-05-10T08:25:04;15.40;99.90
4215;DHT22;2121;48.062;7.850;2023-05-10T08:27:30;15.60;99.90
4215;DHT22;2121;48.062;7.850;2023-05-10T08:29:56;15.70;99.90
4215;DHT22;2121;48.062;7.850;2023-05-10T08:32:21;15.50;99.90
4215;DHT22;2121;48.062;7.850;2023-05-10T08:34:47;15.50;99.90
4215;DHT22;2121;48.062;7.850;2023-05-10T08:37:13;15.30;99.90
4215;DHT22;2121;48.062;7.850;2023-05-10T08:39:39;15.10;99.90
4215;DHT22;2121;48.062;7.850;2023-05-10T08:42:05;14.50;99.90
4215;DHT22;2121;48.062;7.850;2023-05-10T08:44:32;14.20;99.90
4215;DHT22;2121;48.062;7.850;2023-05-10T08:47:04;14.30;99.90
4215;DHT22;2121;48.062;7.850;2023-05-10T08:49:31;14.50;99.90
4215;DHT22;2121;48.062;7.850;2023-05-10T08:52:01;14.50;99.90
4215;DHT22;2121;48.062;7.850;2023-05-10T08:54:31;14.50;99.90
4215;DHT22;2121;48.062;7.850;2023-05-10T08:56:57;14.70;99.90
4215;DHT22;2121;48.062;7.850;2023-05-10T08:59:23;14.90;99.90
4215;DHT22;2121;48.062;7.850;2023-05-10T09:01:49;15.10;99.90
4215;DHT22;2121;48.062;7.850;2023-05-10T09:04:15;15.20;99.90
4215;DHT22;2121;48.062;7.850;2023-05-10T09:06:41;14.60;99.90
4215;DHT22;2121;48.062;7.850;2023-05-10T09:09:07;13.60;99.90
4215;DHT22;2121;48.062;7.850;2023-05-10T09:11:33;12.60;99.90
4215;DHT22;2121;48.062;7.850;2023-05-10T09:13:59;12.00;99.90
4215;DHT22;2121;48.062;7.850;2023-05-10T09:16:25;11.80;99.90
4215;DHT22;2121;48.062;7.850;2023-05-10T09:18:50;11.60;99.90
4215;DHT22;2121;48.062;7.850;2023-05-10T09:21:16;11.50;99.90
4215;DHT22;2121;48.062;7.850;2023-05-10T09:23:45;11.50;99.90
4215;DHT22;2121;48.062;7.850;2023-05-10T09:26:12;11.80;99.90
4215;DHT22;2121;48.062;7.850;2023-05-10T09:28:55;12.10;99.90
4215;DHT22;2121;48.062;7.850;2023-05-10T09:31:22;12.50;99.90
4215;DHT22;2121;48.062;7.850;2023-05-10T09:33:49;12.80;99.90
4215;DHT22;2121;48.062;7.850;2023-05-10T09:36:16;13.00;99.90
4215;DHT22;2121;48.062;7.850;2023-05-10T09:41:23;13.80;99.90
4215;DHT22;2121;48.062;7.850;2023-05-10T09:43:49;14.20;99.90
4215;DHT22;2121;48.062;7.850;2023-05-10T09:46:16;14.40;99.90
4215;DHT22;2121;48.062;7.850;2023-05-10T09:48:46;14.80;99.90
4215;DHT22;2121;48.062;7.850;2023-05-10T09:51:25;15.00;99.90
4215;DHT22;2121;48.062;7.850;2023-05-10T09:54:15;15.10;99.90
4215;DHT22;2121;48.062;7.850;2023-05-10T09:56:42;15.20;99.90
4215;DHT22;2121;48.062;7.850;2023-05-10T09:59:10;15.30;99.90
4215;DHT22;2121;48.062;7.850;2023-05-10T10:01:37;15.30;99.90
4215;DHT22;2121;48.062;7.850;2023-05-10T10:04:05;15.40;99.90
4215;DHT22;2121;48.062;7.850;2023-05-10T10:06:39;15.50;99.90
4215;DHT22;2121;48.062;7.850;2023-05-10T10:09:06;16.10;99.90
4215;DHT22;2121;48.062;7.850;2023-05-10T10:11:34;16.60;99.90
4215;DHT22;2121;48.062;7.850;2023-05-10T10:14:01;17.40;99.90
4215;DHT22;2121;48.062;7.850;2023-05-10T10:16:29;18.30;99.90
4215;DHT22;2121;48.062;7.850;2023-05-10T10:18:55;18.50;99.90
4215;DHT22;2121;48.062;7.850;2023-05-10T10:21:22;18.80;99.90
4215;DHT22;2121;48.062;7.850;2023-05-10T10:23:48;18.80;99.90
4215;DHT22;2121;48.062;7.850;2023-05-10T10:26:16;19.20;99.90
4215;DHT22;2121;48.062;7.850;2023-05-10T10:31:41;19.70;99.90
4215;DHT22;2121;48.062;7.850;2023-05-10T10:36:54;19.40;99.90
4215;DHT22;2121;48.062;7.850;2023-05-10T10:39:22;19.20;99.90
4215;DHT22;2121;48.062;7.850;2023-05-10T10:41:52;18.90;99.90
4215;DHT22;2121;48.062;7.850;2023-05-10T10:50:04;19.10;99.90
4215;DHT22;2121;48.062;7.850;2023-05-10T10:52:31;19.20;99.90
4215;DHT22;2121;48.062;7.850;2023-05-10T11:00:26;18.50;99.90
4215;DHT22;2121;48.062;7.850;2023-05-10T11:03:08;18.90;99.90
4215;DHT22;2121;48.062;7.850;2023-05-10T11:05:43;19.20;99.90
4215;DHT22;2121;48.062;7.850;2023-05-10T11:08:10;19.70;99.90
4215;DHT22;2121;48.062;7.850;2023-05-10T11:10:37;20.30;99.90
4215;DHT22;2121;48.062;7.850;2023-05-10T11:13:08;21.10;99.90
4215;DHT22;2121;48.062;7.850;2023-05-10T11:15:38;21.40;99.90
4215;DHT22;2121;48.062;7.850;2023-05-10T11:18:28;20.70;98.50
4215;DHT22;2121;48.062;7.850;2023-05-10T11:21:02;20.00;98.40
4215;DHT22;2121;48.062;7.850;2023-05-10T11:23:51;20.00;99.00
4215;DHT22;2121;48.062;7.850;2023-05-10T11:26:36;20.30;98.20
4215;DHT22;2121;48.062;7.850;2023-05-10T11:29:02;20.50;98.70
4215;DHT22;2121;48.062;7.850;2023-05-10T11:31:30;20.40;98.20
4215;DHT22;2121;48.062;7.850;2023-05-10T11:33:57;20.00;98.50
4215;DHT22;2121;48.062;7.850;2023-05-10T11:36:28;19.30;97.00
4215;DHT22;2121;48.062;7.850;2023-05-10T11:38:57;19.10;96.50
4215;DHT22;2121;48.062;7.850;2023-05-10T11:41:24;19.20;97.60
4215;DHT22;2121;48.062;7.850;2023-05-10T11:43:51;19.10;97.30
4215;DHT22;2121;48.062;7.850;2023-05-10T11:46:20;19.60;96.10
4215;DHT22;2121;48.062;7.850;2023-05-10T11:48:51;19.90;97.70
4215;DHT22;2121;48.062;7.850;2023-05-10T11:51:22;19.90;97.30
4215;DHT22;2121;48.062;7.850;2023-05-10T11:53:54;19.40;96.00
4215;DHT22;2121;48.062;7.850;2023-05-10T11:56:20;19.30;96.30
4215;DHT22;2121;48.062;7.850;2023-05-10T11:58:55;19.40;97.60
4215;DHT22;2121;48.062;7.850;2023-05-10T12:01:23;20.10;97.00
4215;DHT22;2121;48.062;7.850;2023-05-10T12:03:51;20.70;97.60
4215;DHT22;2121;48.062;7.850;2023-05-10T12:06:19;20.80;95.70
4215;DHT22;2121;48.062;7.850;2023-05-10T12:08:47;20.50;96.40
4215;DHT22;2121;48.062;7.850;2023-05-10T12:11:14;20.30;95.60
4215;DHT22;2121;48.062;7.850;2023-05-10T12:13:41;19.70;95.70
4215;DHT22;2121;48.062;7.850;2023-05-10T12:16:19;19.00;96.30
4215;DHT22;2121;48.062;7.850;2023-05-10T12:18:49;18.10;95.90
4215;DHT22;2121;48.062;7.850;2023-05-10T12:21:20;17.50;96.80
4215;DHT22;2121;48.062;7.850;2023-05-10T12:23:49;17.40;97.80
4215;DHT22;2121;48.062;7.850;2023-05-10T12:26:15;17.40;98.30
4215;DHT22;2121;48.062;7.850;2023-05-10T12:28:41;17.10;99.00
4215;DHT22;2121;48.062;7.850;2023-05-10T12:31:08;17.10;97.50
4215;DHT22;2121;48.062;7.850;2023-05-10T12:33:42;17.10;97.70
4215;DHT22;2121;48.062;7.850;2023-05-10T12:36:10;17.10;97.90
4215;DHT22;2121;48.062;7.850;2023-05-10T12:38:40;17.20;99.00
4215;DHT22;2121;48.062;7.850;2023-05-10T12:41:13;17.50;98.30
4215;DHT22;2121;48.062;7.850;2023-05-10T12:43:41;17.90;97.60
4215;DHT22;2121;48.062;7.850;2023-05-10T12:46:10;18.10;97.10
4215;DHT22;2121;48.062;7.850;2023-05-10T12:48:38;18.10;98.00
4215;DHT22;2121;48.062;7.850;2023-05-10T12:51:05;18.40;99.00
4215;DHT22;2121;48.062;7.850;2023-05-10T12:53:35;18.40;98.20
4215;DHT22;2121;48.062;7.850;2023-05-10T12:56:01;17.90;98.80
4215;DHT22;2121;48.062;7.850;2023-05-10T12:58:27;17.30;99.90
4215;DHT22;2121;48.062;7.850;2023-05-10T13:00:53;18.80;99.00
4215;DHT22;2121;48.062;7.850;2023-05-10T13:03:19;20.90;97.50
4215;DHT22;2121;48.062;7.850;2023-05-10T13:05:44;24.00;96.50
4215;DHT22;2121;48.062;7.850;2023-05-10T13:08:10;23.50;93.80
4215;DHT22;2121;48.062;7.850;2023-05-10T13:10:36;21.60;94.60
4215;DHT22;2121;48.062;7.850;2023-05-10T13:13:02;20.00;96.30
4215;DHT22;2121;48.062;7.850;2023-05-10T13:15:28;19.80;96.50
4215;DHT22;2121;48.062;7.850;2023-05-10T13:17:54;19.10;96.20
4215;DHT22;2121;48.062;7.850;2023-05-10T13:20:21;19.00;97.20
4215;DHT22;2121;48.062;7.850;2023-05-10T13:22:47;18.60;97.20
4215;DHT22;2121;48.062;7.850;2023-05-10T13:25:13;18.70;97.30
4215;DHT22;2121;48.062;7.850;2023-05-10T13:27:41;18.60;95.50
4215;DHT22;2121;48.062;7.850;2023-05-10T13:30:08;18.60;97.30
4215;DHT22;2121;48.062;7.850;2023-05-10T13:32:35;18.70;95.80
4215;DHT22;2121;48.062;7.850;2023-05-10T13:35:01;18.30;95.20
4215;DHT22;2121;48.062;7.850;2023-05-10T13:37:31;18.10;96.00
4215;DHT22;2121;48.062;7.850;2023-05-10T13:40:00;17.80;96.90
4215;DHT22;2121;48.062;7.850;2023-05-10T13:42:26;17.80;96.60
4215;DHT22;2121;48.062;7.850;2023-05-10T13:44:52;17.80;97.10
4215;DHT22;2121;48.062;7.850;2023-05-10T13:47:18;18.20;96.60
4215;DHT22;2121;48.062;7.850;2023-05-10T13:49:44;19.30;97.20
4215;DHT22;2121;48.062;7.850;2023-05-10T13:52:10;20.60;95.20
4215;DHT22;2121;48.062;7.850;2023-05-10T13:54:38;20.30;94.80
4215;DHT22;2121;48.062;7.850;2023-05-10T13:57:04;20.00;94.20
4215;DHT22;2121;48.062;7.850;2023-05-10T13:59:30;19.80;95.20
4215;DHT22;2121;48.062;7.850;2023-05-10T14:01:59;19.70;95.00
4215;DHT22;2121;48.062;7.850;2023-05-10T14:04:28;19.50;95.70
4215;DHT22;2121;48.062;7.850;2023-05-10T14:06:54;21.10;95.10
4215;DHT22;2121;48.062;7.850;2023-05-10T14:09:20;22.90;94.20
4215;DHT22;2121;48.062;7.850;2023-05-10T14:11:46;25.80;93.20
4215;DHT22;2121;48.062;7.850;2023-05-10T14:14:12;25.90;89.40
4215;DHT22;2121;48.062;7.850;2023-05-10T14:16:43;27.10;89.30
4215;DHT22;2121;48.062;7.850;2023-05-10T14:19:10;26.30;83.30
4215;DHT22;2121;48.062;7.850;2023-05-10T14:21:36;26.40;84.10
4215;DHT22;2121;48.062;7.850;2023-05-10T14:24:02;26.20;84.30
4215;DHT22;2121;48.062;7.850;2023-05-10T14:26:28;25.60;81.10
4215;DHT22;2121;48.062;7.850;2023-05-10T14:28:54;24.00;83.80
4215;DHT22;2121;48.062;7.850;2023-05-10T14:31:19;23.80;84.00
4215;DHT22;2121;48.062;7.850;2023-05-10T14:33:46;22.80;85.10
4215;DHT22;2121;48.062;7.850;2023-05-10T14:36:12;22.40;85.60
4215;DHT22;2121;48.062;7.850;2023-05-10T14:38:39;22.10;87.70
4215;DHT22;2121;48.062;7.850;2023-05-10T14:41:05;21.40;88.50
4215;DHT22;2121;48.062;7.850;2023-05-10T14:43:31;21.50;90.30
4215;DHT22;2121;48.062;7.850;2023-05-10T14:45:57;21.10;89.80
4215;DHT22;2121;48.062;7.850;2023-05-10T14:48:23;20.20;90.30
4215;DHT22;2121;48.062;7.850;2023-05-10T14:50:48;19.80;90.40
4215;DHT22;2121;48.062;7.850;2023-05-10T14:53:15;19.60;92.10
4215;DHT22;2121;48.062;7.850;2023-05-10T14:55:41;19.70;91.10
4215;DHT22;2121;48.062;7.850;2023-05-10T14:58:07;20.50;91.00
4215;DHT22;2121;48.062;7.850;2023-05-10T15:00:33;22.10;90.70
4215;DHT22;2121;48.062;7.850;2023-05-10T15:02:59;23.00;87.50
4215;DHT22;2121;48.062;7.850;2023-05-10T15:05:24;24.60;86.60
4215;DHT22;2121;48.062;7.850;2023-05-10T15:07:50;23.00;87.10
4215;DHT22;2121;48.062;7.850;2023-05-10T15:10:16;20.90;89.50
4215;DHT22;2121;48.062;7.850;2023-05-10T15:12:42;21.00;91.10
4215;DHT22;2121;48.062;7.850;2023-05-10T15:15:07;22.40;89.20
4215;DHT22;2121;48.062;7.850;2023-05-10T15:17:34;23.90;87.10
4215;DHT22;2121;48.062;7.850;2023-05-10T15:20:00;25.00;85.70
4215;DHT22;2121;48.062;7.850;2023-05-10T15:22:28;25.40;84.90
4215;DHT22;2121;48.062;7.850;2023-05-10T15:24:57;27.10;83.90
4215;DHT22;2121;48.062;7.850;2023-05-10T15:27:24;28.70;81.10
4215;DHT22;2121;48.062;7.850;2023-05-10T15:29:51;30.60;79.40
4215;DHT22;2121;48.062;7.850;2023-05-10T15:32:17;26.80;79.20
4215;DHT22;2121;48.062;7.850;2023-05-10T15:34:42;24.40;84.00
4215;DHT22;2121;48.062;7.850;2023-05-10T15:37:08;22.20;86.10
4215;DHT22;2121;48.062;7.850;2023-05-10T15:39:35;20.90;87.90
4215;DHT22;2121;48.062;7.850;2023-05-10T15:42:00;22.60;87.00
4215;DHT22;2121;48.062;7.850;2023-05-10T15:44:26;24.40;83.40
4215;DHT22;2121;48.062;7.850;2023-05-10T15:46:52;27.70;80.50
4215;DHT22;2121;48.062;7.850;2023-05-10T15:49:18;29.40;77.90
4215;DHT22;2121;48.062;7.850;2023-05-10T15:51:43;27.40;77.20
4215;DHT22;2121;48.062;7.850;2023-05-10T15:54:09;26.30;80.20
4215;DHT22;2121;48.062;7.850;2023-05-10T15:56:35;24.00;80.60
4215;DHT22;2121;48.062;7.850;2023-05-10T15:59:01;21.60;84.40
4215;DHT22;2121;48.062;7.850;2023-05-10T16:01:26;19.70;88.90
4215;DHT22;2121;48.062;7.850;2023-05-10T16:03:52;19.10;90.50
4215;DHT22;2121;48.062;7.850;2023-05-10T16:06:18;18.50;90.20
4215;DHT22;2121;48.062;7.850;2023-05-10T16:08:44;17.90;91.00
4215;DHT22;2121;48.062;7.850;2023-05-10T16:11:10;17.60;91.70
4215;DHT22;2121;48.062;7.850;2023-05-10T16:13:35;17.30;91.60
4215;DHT22;2121;48.062;7.850;2023-05-10T16:16:01;17.00;92.40
4215;DHT22;2121;48.062;7.850;2023-05-10T16:18:27;16.80;93.00
4215;DHT22;2121;48.062;7.850;2023-05-10T16:20:53;16.70;93.10
4215;DHT22;2121;48.062;7.850;2023-05-10T16:23:18;16.50;94.10
4215;DHT22;2121;48.062;7.850;2023-05-10T16:25:44;16.10;94.80
4215;DHT22;2121;48.062;7.850;2023-05-10T16:28:10;15.60;97.30
4215;DHT22;2121;48.062;7.850;2023-05-10T16:30:36;15.10;99.90
4215;DHT22;2121;48.062;7.850;2023-05-10T16:33:02;14.40;99.90
4215;DHT22;2121;48.062;7.850;2023-05-10T16:35:28;13.60;99.90
4215;DHT22;2121;48.062;7.850;2023-05-10T16:37:54;13.20;99.90
4215;DHT22;2121;48.062;7.850;2023-05-10T16:40:21;12.90;99.90